LFRDLFRU

Guest
Details From LFRD - Dinard Pleurtuit-St Malo
To LFRU - Morlaix Ploujean
Flight Number -
Tags generated
Created
Modified
Stats Distance 69 nm / 128 km
Max Altitude 0 ft / 0 m
Waypoints 2
Social Downloads 2
Likes 0
Share VATSIM

Download

Looking for another format? Having issues loading an existing format? Contact us
Advertisement - Login to hide

Notes

Basic altitude profile: - Ascent Rate: 2500ft/min - Ascent Speed: 250kts - Cruise Altitude: 35000ft - Cruise Speed: 420kts - Descent Rate: 1500ft/min - Descent Speed: 250kts Options: - Use NATs: no - Use PACOTS: no - Use low airways: no - Use high airways: no

Route

LFRD LFRU

ID Type Via Altitude Latitude Longitude Leg Dist Tot Dist Heading (true) Name
O LFRD APT - 0 ft / 0 m 48.58798˚ -2.07992˚ - 0 nm - Dinard Pleurtuit-St Malo
O LFRU APT - 0 ft / 0 m 48.60324˚ -3.81586˚ 68 nm 68 nm 271° / 270° Morlaix Ploujean

Altitude Profile

Advertisement - Login to hide

LFRD

Details ICAO LFRD (DNR)
Name Dinard Pleurtuit-St Malo
Region France
Timezone Europe/Paris (UTC+2.0)
Stats Elevation 216 ft / 66 m (AMSL)
Location 48.587983° -2.079916°
Runways 2
Magnetic Variation 0.738° W

METAR

LFRD 210930Z AUTO 36004KT 300V050 6000 NSC 19/14 Q1014 NOSIG

Decode

TAF

TAF LFRD 210500Z 2106/2206 VRB03KT 0200 FG VV/// BECMG 2107/2109 9999 NSW SCT020 BECMG 2110/2112 36010KT BECMG 2120/2122 VRB03KT PROB30 TEMPO 2119/2206 3000 BR BKN003

Decode

Departure Runways

ID Width Length Bearing (true) Bearing (mag) Surface Threshold Offset Overrun Length
12 148 ft / 45 m 4,909 ft / 1,496 m 115.13° 115.87° Asphalt 0 ft / 0 m 0 ft / 0 m
17 148 ft / 45 m 7,199 ft / 2,194 m 170.09° 170.83° Asphalt 0 ft / 0 m 0 ft / 0 m
30 148 ft / 45 m 4,909 ft / 1,496 m 295.14° 295.88° Asphalt 669 ft / 204 m 0 ft / 0 m
35 148 ft / 45 m 7,199 ft / 2,194 m 350.10° 350.84° Asphalt 0 ft / 0 m 0 ft / 0 m

LFRU

Details ICAO LFRU (MXN)
Name Morlaix Ploujean
Region France
Timezone Europe/Paris (UTC+2.0)
Stats Elevation 277 ft / 84 m (AMSL)
Location 48.603238° -3.815856°
Runways 1
Magnetic Variation 1.325° W

METAR

LFRU 210930Z AUTO 07007KT 050V110 CAVOK 19/12 Q1014

Decode

TAF

Not found

Destination Runways

ID Width Length Bearing (true) Bearing (mag) Surface Threshold Offset Overrun Length
04 121 ft / 37 m 5,299 ft / 1,615 m 40.00° 41.32° Asphalt 459 ft / 140 m 0 ft / 0 m
22 121 ft / 37 m 5,299 ft / 1,615 m 220.01° 221.33° Asphalt 0 ft / 0 m 0 ft / 0 m

Approach Navaids

Runway Type Ident Frequency Range Bearing (true) Bearing (mag) Slope Elevation
22 Localiser MX 110.50 MHz 18 nm / 33 km 220.12° 221.44° - 277 ft / 84 m (AMSL)
22 DME MX 110.50 MHz 18 nm / 33 km - - - 277 ft / 84 m (AMSL)

Popular Alternatives